Colstrip, MT (59323)

12:03 PM MDT on August 28, 2015 (GMT -0600)
Water Plant | | Change Station
CLOSE
Current Station
Personal Weather Station
Location: Colstrip, MT
Elevation: 3255 ft
Nearby Weather Stations

Elev 3255 ft 45.89 °N, 106.63 °W | Updated 2 minutes ago

Partly Cloudy
Partly Cloudy
81.4 °F
Feels Like 80 °F
N
4.0
Wind Variable Wind from WNW
Gusts 8.0 mph

Today
High -- | Low -- °F
--% Chance of Precip.
Yesterday
High -- | Low -- °F
Precip. -- in
6:22 AM 7:52 PM
Waxing Gibbous, 98% visible
Pressure 29.94 in
Visibility 2.5 miles
Clouds Overcast 3400 ft
Heat Index 80 °F
Dew Point 46 °F
Humidity 29%
Rainfall 0.00 in
Snow Depth Not available.
UV 2 out of 12
Pollen 10.00 out of 12
Air Quality Not available.
Flu Activity Not available.
METAR KMLS 281753Z AUTO 31011KT 2 1/2SM HZ OVC034 29/06 A3000 RMK AO2 SLP136 T02890061 10289 20156 53001
Pressure 29.94 in
Visibility 2.5 miles
Clouds Overcast 3400 ft
Heat Index 80 °F
Dew Point 46 °F
Humidity 29%
Rainfall 0.00 in
Snow Depth Not available.
UV 2 out of 12
Pollen 10.00 out of 12
Air Quality Not available.
Flu Activity Not available.
METAR KMLS 281753Z AUTO 31011KT 2 1/2SM HZ OVC034 29/06 A3000 RMK AO2 SLP136 T02890061 10289 20156 53001

10-Day Weather Forecast

×

Almanac

Astronomy

Aug. 28, 2015 Rise Set
Actual Time
Civil Twilight
Nautical Twilight
Astronomical Twilight
Moon
Length of Visible Light
Length of Day
Tomorrow will be .
, % of the Moon is Illuminated

Today's Extremes

State Highs State Lows

Community

WunderPhotos

Upload Photos

1,850,447 photos uploaded!

WunderBlogs® & News

Nearby

Air Quality

  Air Quality AQ Index Pollutant
Not available.

Snow Depth

Station Depth Elevation

Earthquake Activity

City Distance Mag. Time & Date
Minimum magnitude displayed is 2.5.

Coastal Water Temperatures

Place Temperature

Stations

Nearby Weather Stations

Station Location Temp. Windchill Dew Point Humidity Wind Precip. Elev Updated Type